CQ0XCH-11 Weather Reports


time (UTC)temp
C
wind
direction
speed
KPH
gust
KPH
rain 1hr
cm
rain 24hr
cm
rain mn
cm
humidity
%
barometer
mb
20260503175955 23 325 9.7 12.9 0.00 0.00 0.13 35 992.5
20260503175806 23 323 4.8 9.7 0.00 0.00 0.13 35 992.6
20260503175542 23 329 4.8 11.3 0.00 0.00 0.13 35 992.5
20260503175357 23 276 4.8 11.3 0.00 0.00 0.13 35 992.5
20260503175212 23 314 9.7 11.3 0.00 0.00 0.13 35 992.5
20260503174951 23 328 9.7 11.3 0.00 0.00 0.13 35 992.5
20260503174742 23 314 6.4 9.7 0.00 0.00 0.13 35 992.4
20260503173941 23 315 1.6 9.7 0.00 0.00 0.13 36 992.6
20260503173728 23 313 8.0 9.7 0.00 0.00 0.13 36 992.6
20260503173523 23 329 8.0 8.0 0.00 0.00 0.13 36 992.5
20260503173344 24 339 3.2 6.4 0.00 0.00 0.13 37 992.5
20260503173101 24 314 3.2 6.4 0.00 0.00 0.13 37 992.5
20260503172903 24 329 1.6 6.4 0.00 0.00 0.13 37 992.4
20260503172705 24 260 3.2 8.0 0.00 0.00 0.13 37 992.4
20260503172450 24 345 0.0 8.0 0.00 0.00 0.13 37 992.4
20260503172305 23 270 4.8 8.0 0.00 0.00 0.13 38 992.4
20260503171913 24 324 1.6 3.2 0.00 0.00 0.13 38 992.5
20260503171700 24 317 1.6 3.2 0.00 0.00 0.13 38 992.5
20260503171502 24 315 1.6 4.8 0.00 0.00 0.13 38 992.5
20260503171046 24 220 1.6 3.2 0.00 0.00 0.13 38 992.5
20260503170846 24 239 1.6 1.6 0.00 0.00 0.13 38 992.4
20260503170427 24 249 0.0 3.2 0.00 0.00 0.13 39 992.5
20260503150928 26 283 6.4 11.3 0.00 0.00 0.03 27 992.4
20260503150546 26 272 4.8 8.0 0.00 0.00 0.03 27 992.3
20260503150116 26 253 6.4 12.9 0.00 0.00 0.03 27 992.4
20260503140253 27 333 9.7 11.3 0.00 0.00 0.03 24 992.7
20260503131235 27 299 3.2 12.9 0.00 0.00 0.03 23 992.7
20260503130837 27 312 4.8 8.0 0.00 0.00 0.03 24 992.7
20260503130630 27 22 4.8 9.7 0.00 0.00 0.03 24 992.7
20260503130432 27 319 3.2 9.7 0.00 0.00 0.03 24 992.6
20260503130211 27 347 8.0 9.7 0.00 0.00 0.03 24 992.8
20260503120131 28 260 8.0 8.0 0.00 0.00 0.03 21 993.1
20260503110719 26 105 3.2 11.3 0.00 0.00 0.03 24 993.6
20260503110518 27 264 6.4 11.3 0.00 0.00 0.03 25 993.6
20260503110318 26 244 4.8 8.0 0.00 0.00 0.03 26 993.6
20260503110114 26 229 4.8 8.0 0.00 0.00 0.03 26 993.7
20260503100143 25 296 6.4 8.0 0.00 0.00 0.03 32 994.1
20260503090234 25 264 4.8 4.8 0.00 0.00 0.03 38 994.1
20260503081452 22 225 0.0 3.2 0.00 0.00 0.03 44 994.2
20260503081125 21 90 0.0 3.2 0.00 0.00 0.03 45 994.2
20260503080907 21 270 0.0 4.8 0.00 0.00 0.03 46 994.2
20260503080502 21 243 1.6 1.6 0.00 0.00 0.03 45 994.3
20260503080248 21 270 0.0 3.2 0.00 0.00 0.03 46 994.3
20260503072936 20 188 0.0 1.6 0.00 0.00 0.03 47 994.2
20260503072733 20 162 1.6 1.6 0.00 0.00 0.03 47 994.1
20260503072330 20 145 0.0 3.2 0.00 0.00 0.03 47 994.0
20260503072136 20 135 0.0 3.2 0.00 0.00 0.03 46 994.1
20260503071926 20 135 0.0 1.6 0.00 0.00 0.00 46 994.1
20260503071729 20 171 0.0 1.6 0.00 0.00 0.00 46 994.0
20260503071328 20 184 0.0 1.6 0.00 0.00 0.00 46 994.0
20260503071112 20 270 0.0 1.6 0.00 0.00 0.00 46 994.0
20260503070901 20 225 0.0 1.6 0.00 0.00 0.00 47 994.0
20260503070731 20 298 0.0 0.0 0.00 0.00 0.00 47 994.0
20260503070509 20 315 0.0 1.6 0.00 0.00 0.00 47 994.0
20260503070312 20 310 0.0 1.6 0.00 0.00 0.00 47 994.0
20260503060331 18 315 0.0 0.0 0.00 0.00 0.00 48 993.8
20260503054930 18 89 0.0 0.0 0.00 0.00 0.00 48 993.7
20260503054654 18 90 0.0 0.0 0.00 0.00 0.00 48 993.8
20260503053918 17 90 0.0 0.0 0.00 0.00 0.00 49 993.8
20260503053650 17 225 0.0 1.6 0.00 0.00 0.00 49 993.8
20260503053443 17 225 0.0 1.6 0.00 0.00 0.00 49 993.8
20260503053317 17 225 0.0 0.0 0.00 0.00 0.00 49 993.8
20260503052840 17 270 0.0 0.0 0.00 0.00 0.00 49 993.7
20260503052621 17 270 0.0 0.0 0.00 0.00 0.00 49 993.8
20260503052430 17 270 0.0 0.0 0.00 0.00 0.00 49 993.7
20260503052235 17 89 0.0 0.0 0.00 0.00 0.00 49 993.8
20260503052025 17 90 0.0 1.6 0.00 0.00 0.00 49 993.7
20260503051821 17 270 0.0 1.6 0.00 0.00 0.00 49 993.7
20260503051632 17 0 0.0 0.0 0.00 0.00 0.00 49 993.8
20260503051400 17 0 0.0 0.0 0.00 0.00 0.00 49 993.7
20260503051237 16 0 0.0 0.0 0.00 0.00 0.00 50 993.8
20260503050952 16 0 0.0 1.6 0.00 0.00 0.00 50 993.8
20260503050811 16 0 0.0 1.6 0.00 0.00 0.00 50 993.8
20260503050612 16 332 1.6 1.6 0.00 0.00 0.00 50 993.8
20260503050404 16 315 0.0 0.0 0.00 0.00 0.00 50 993.8
20260503050139 16 315 0.0 1.6 0.00 0.00 0.00 50 993.8
20260503050011 16 315 0.0 1.6 0.00 0.00 0.00 51 993.7
20260503045556 16 90 1.6 1.6 0.00 0.00 0.00 51 993.7
20260503045350 16 270 1.6 1.6 0.00 0.00 0.00 51 993.7
20260503044932 16 76 1.6 1.6 0.00 0.00 0.00 51 993.8
20260503044750 16 90 0.0 0.0 0.00 0.00 0.00 50 993.8
20260503044529 16 270 0.0 1.6 0.00 0.00 0.00 50 993.8
20260503044344 16 90 0.0 1.6 0.00 0.00 0.00 50 993.8
20260503044126 16 126 0.0 1.6 0.00 0.00 0.00 50 993.8
20260503043920 16 0 0.0 1.6 0.00 0.00 0.00 50 993.7
20260503043730 16 90 0.0 1.6 0.00 0.00 0.00 51 993.7
20260503042905 16 0 1.6 1.6 0.00 0.00 0.00 50 993.7
20260503042737 16 0 1.6 1.6 0.00 0.00 0.00 50 993.8
20260503042502 16 0 1.6 1.6 0.00 0.00 0.00 50 993.6
20260503042309 16 90 0.0 1.6 0.00 0.00 0.00 50 993.7
20260503041655 16 354 0.0 1.6 0.00 0.00 0.00 50 993.7
20260503041451 16 90 0.0 1.6 0.00 0.00 0.00 50 993.6
20260503041234 16 90 0.0 1.6 0.00 0.00 0.00 50 993.7
20260503041035 16 90 0.0 1.6 0.00 0.00 0.00 49 993.7
20260503040852 16 89 0.0 1.6 0.00 0.00 0.00 49 993.8
20260503040622 16 135 0.0 0.0 0.00 0.00 0.00 49 993.8
20260503040410 16 315 0.0 0.0 0.00 0.00 0.00 49 993.8
20260503040234 16 135 0.0 0.0 0.00 0.00 0.00 49 993.8
20260503040011 16 135 0.0 0.0 0.00 0.00 0.00 49 993.9
20260503035818 16 339 0.0 0.0 0.00 0.00 0.00 50 993.9
20260503035624 16 135 0.0 0.0 0.00 0.00 0.00 49 993.8
20260503035407 16 135 0.0 0.0 0.00 0.00 0.00 49 993.9
20260503035158 16 135 0.0 0.0 0.00 0.00 0.00 49 993.8
20260503034541 16 90 0.0 0.0 0.00 0.00 0.00 49 993.9
20260503034339 16 90 0.0 1.6 0.00 0.00 0.00 49 993.8
20260503033955 16 135 0.0 1.6 0.00 0.00 0.00 48 993.8
20260503033824 16 0 0.0 1.6 0.00 0.00 0.00 48 993.8
20260503033527 16 0 1.6 1.6 0.00 0.00 0.00 48 993.8
20260503033331 16 0 0.0 1.6 0.00 0.00 0.00 48 993.8
20260503032944 16 0 0.0 1.6 0.00 0.00 0.00 48 993.8
20260503032307 16 270 0.0 1.6 0.00 0.00 0.00 48 993.9
20260503032127 16 270 1.6 1.6 0.00 0.00 0.00 48 993.9
20260503031900 16 270 0.0 1.6 0.00 0.00 0.00 48 993.9
20260503031712 16 90 0.0 1.6 0.00 0.00 0.00 48 993.9
20260503031455 16 0 0.0 1.6 0.00 0.00 0.00 47 994.0
20260503031302 16 83 0.0 1.6 0.00 0.00 0.00 48 993.9
20260503031054 16 324 1.6 1.6 0.00 0.00 0.00 47 994.0
20260503030648 16 93 0.0 1.6 0.00 0.00 0.00 47 994.0
20260503030500 16 0 0.0 1.6 0.00 0.00 0.00 47 994.0
20260503030235 16 0 0.0 1.6 0.00 0.00 0.00 48 994.1
20260503030044 16 0 0.0 1.6 0.00 0.00 0.00 48 994.1
20260503025852 16 90 0.0 1.6 0.00 0.00 0.00 48 994.0
20260503025644 17 270 1.6 1.6 0.00 0.00 0.00 48 993.9
20260503025256 17 127 1.6 1.6 0.00 0.00 0.00 48 993.9
20260503024822 17 90 0.0 1.6 0.00 0.00 0.00 48 994.0
20260503024651 17 0 0.0 1.6 0.00 0.00 0.00 48 993.9
20260503024433 16 0 0.0 1.6 0.00 0.00 0.00 48 994.0
20260503024207 17 0 0.0 1.6 0.00 0.00 0.00 48 994.0
20260503024010 17 0 1.6 1.6 0.00 0.00 0.00 47 994.0
20260503023832 17 270 0.0 1.6 0.00 0.00 0.00 48 994.0
20260503023618 17 99 0.0 1.6 0.00 0.00 0.00 48 994.0
20260503023405 17 327 1.6 1.6 0.00 0.00 0.00 48 994.0
20260503023216 17 270 0.0 1.6 0.00 0.00 0.00 48 994.1
20260503022949 17 0 0.0 1.6 0.00 0.00 0.00 47 994.1
20260503022752 17 0 1.6 1.6 0.00 0.00 0.00 47 994.1
20260503022350 17 275 1.6 1.6 0.00 0.00 0.00 47 994.1
20260503021947 17 90 0.0 1.6 0.00 0.00 0.00 48 994.1
20260503021725 17 90 0.0 0.0 0.00 0.00 0.00 48 994.2
20260503021332 17 0 0.0 1.6 0.00 0.00 0.00 47 994.2
20260503021141 17 0 0.0 1.6 0.00 0.00 0.00 47 994.1
20260503020925 17 90 0.0 1.6 0.00 0.00 0.00 47 994.2
20260503020750 17 0 0.0 1.6 0.00 0.00 0.00 47 994.3
20260503020516 17 61 0.0 1.6 0.00 0.00 0.00 47 994.3
20260503020318 17 270 0.0 1.6 0.00 0.00 0.00 47 994.3
20260503020145 17 0 1.6 1.6 0.00 0.00 0.00 47 994.4
20260503015702 17 342 1.6 1.6 0.00 0.00 0.00 47 994.4
20260503015532 17 0 0.0 1.6 0.00 0.00 0.00 47 994.4
20260503015308 17 0 0.0 1.6 0.00 0.00 0.00 47 994.3
20260503015100 17 0 1.6 1.6 0.00 0.00 0.00 47 994.3
20260503014716 17 0 0.0 1.6 0.00 0.00 0.00 46 994.3
20260503014257 17 0 1.6 1.6 0.00 0.00 0.00 46 994.2
20260503014045 17 0 0.0 1.6 0.00 0.00 0.00 47 994.3
20260503013857 17 0 0.0 1.6 0.00 0.00 0.00 47 994.3
20260503013706 17 319 1.6 1.6 0.00 0.00 0.00 46 994.4
20260503013432 17 334 1.6 1.6 0.00 0.00 0.00 46 994.3
20260503013233 17 339 1.6 1.6 0.00 0.00 0.00 46 994.4
20260503013050 18 358 1.6 1.6 0.00 0.00 0.00 46 994.5
20260503012640 18 135 0.0 0.0 0.00 0.00 0.00 46 994.5
20260503012402 17 135 0.0 0.0 0.00 0.00 0.00 46 994.5
20260503012215 17 135 0.0 0.0 0.00 0.00 0.00 46 994.5
20260503011955 18 135 0.0 0.0 0.00 0.00 0.00 46 994.6
20260503011813 18 135 0.0 0.0 0.00 0.00 0.00 46 994.6
20260503011625 18 135 0.0 0.0 0.00 0.00 0.00 46 994.7
20260503011354 18 0 0.0 0.0 0.00 0.00 0.00 46 994.7
20260503011143 18 0 0.0 0.0 0.00 0.00 0.00 46 994.7
20260503011000 18 0 0.0 0.0 0.00 0.00 0.00 46 994.7
20260503010603 18 0 0.0 1.6 0.00 0.00 0.00 46 994.7
20260503010136 18 0 0.0 1.6 0.00 0.00 0.00 46 994.7
20260503005924 18 0 0.0 0.0 0.00 0.00 0.00 46 994.8
20260503005539 18 0 0.0 1.6 0.00 0.00 0.00 46 994.7
20260503005324 18 0 0.0 1.6 0.00 0.00 0.00 46 994.7
20260503004712 18 0 0.0 0.0 0.00 0.00 0.00 46 994.8
20260503004521 18 0 0.0 0.0 0.00 0.00 0.00 46 994.9
20260503004301 18 0 0.0 0.0 0.00 0.00 0.00 46 994.9
20260503004106 18 0 0.0 0.0 0.00 0.00 0.00 46 994.9
20260503003859 18 0 0.0 1.6 0.00 0.00 0.00 46 994.9
20260503003708 18 0 0.0 1.6 0.00 0.00 0.00 46 994.8
20260503003453 18 356 1.6 1.6 0.00 0.00 0.00 46 994.9
20260503003108 18 315 1.6 1.6 0.00 0.00 0.00 46 994.9
20260503002845 18 315 0.0 1.6 0.00 0.00 0.00 46 994.9
20260503002634 18 315 0.0 1.6 0.00 0.00 0.00 46 994.9
20260503002438 18 315 0.0 1.6 0.00 0.00 0.00 46 994.8
20260503002240 18 341 1.6 1.6 0.00 0.00 0.00 45 994.9
20260503002039 18 315 0.0 1.6 0.00 0.00 0.00 45 994.9
20260503001836 18 315 0.0 1.6 0.00 0.00 0.00 46 994.9
20260503001421 18 315 0.0 1.6 0.00 0.00 0.00 45 994.9
20260503001233 18 0 0.0 3.2 0.00 0.00 0.00 45 994.9
20260503001019 18 350 1.6 3.2 0.00 0.00 0.00 45 994.9
20260503000821 18 339 3.2 3.2 0.00 0.00 0.00 45 994.9
20260503000620 18 320 1.6 1.6 0.00 0.00 0.00 44 994.9
20260503000407 19 315 1.6 3.2 0.00 0.00 0.00 44 994.9
20260503000203 19 343 1.6 3.2 0.00 0.00 0.00 44 994.9
20260503000041 19 351 1.6 1.6 0.00 0.00 0.00 44 994.8
20260502235802 19 0 0.0 0.0 0.00 0.00 0.00 44 994.9
20260502235607 19 348 0.0 0.0 0.00 0.00 0.00 44 995.0
20260502235419 20 315 0.0 1.6 0.00 0.00 0.00 44 994.9
20260502235148 20 0 0.0 1.6 0.00 0.00 0.00 43 995.0
20260502234937 20 0 0.0 1.6 0.00 0.00 0.00 43 995.0
20260502234819 20 315 0.0 1.6 0.00 0.00 0.00 43 995.0
20260502234552 20 324 0.0 1.6 0.00 0.00 0.00 43 994.9
20260502234344 20 0 0.0 0.0 0.00 0.00 0.00 43 994.9
20260502234131 20 0 0.0 0.0 0.00 0.00 0.00 43 995.0
20260502233927 20 90 0.0 0.0 0.00 0.00 0.00 43 995.1
20260502233724 20 90 0.0 0.0 0.00 0.00 0.00 43 995.1
20260502233316 20 0 0.0 1.6 0.00 0.00 0.00 42 995.1
20260502232903 21 0 0.0 1.6 0.00 0.00 0.00 42 995.0
20260502232722 21 0 0.0 0.0 0.00 0.00 0.00 42 995.1
20260502232526 21 0 0.0 0.0 0.00 0.00 0.00 42 995.1
20260502232311 21 0 0.0 0.0 0.00 0.00 0.00 42 995.1
20260502232051 21 0 0.0 0.0 0.00 0.00 0.00 42 995.1
20260502231910 21 0 0.0 0.0 0.00 0.00 0.00 42 995.0
20260502231713 21 0 0.0 0.0 0.00 0.00 0.00 42 995.1
20260502231526 21 0 0.0 1.6 0.00 0.00 0.00 41 995.0
20260502231252 21 0 0.0 1.6 0.00 0.00 0.00 41 995.0
20260502230847 21 0 0.0 1.6 0.00 0.00 0.00 41 995.1
20260502230709 21 0 0.0 1.6 0.00 0.00 0.00 41 995.1
20260502230443 21 351 1.6 1.6 0.00 0.00 0.00 41 995.1
20260502230300 21 315 0.0 1.6 0.00 0.00 0.00 41 995.0
20260502230020 21 315 0.0 1.6 0.00 0.00 0.00 42 995.1
20260502225833 21 315 0.0 1.6 0.00 0.00 0.00 42 995.1
20260502225633 21 315 0.0 1.6 0.00 0.00 0.00 41 994.9
20260502225419 21 315 1.6 1.6 0.00 0.00 0.00 42 995.0
20260502225214 21 315 1.6 1.6 0.00 0.00 0.00 42 995.0
20260502225051 21 326 0.0 4.8 0.00 0.00 0.00 41 994.9
20260502224808 21 349 1.6 4.8 0.00 0.00 0.00 41 994.9
20260502224612 21 286 4.8 4.8 0.00 0.00 0.00 41 994.9
20260502224355 21 315 0.0 3.2 0.00 0.00 0.00 41 994.9
20260502223955 21 348 0.0 3.2 0.00 0.00 0.00 42 994.9
20260502223801 21 315 0.0 1.6 0.00 0.00 0.00 41 994.9
20260502223354 21 315 0.0 4.8 0.00 0.00 0.00 41 994.8
20260502223138 21 322 1.6 4.8 0.00 0.00 0.00 41 995.0
20260502222951 21 316 4.8 4.8 0.00 0.00 0.00 41 994.9
20260502222731 21 305 3.2 3.2 0.00 0.00 0.00 41 994.9
20260502222323 22 318 1.6 3.2 0.00 0.00 0.00 41 994.9
20260502222141 22 0 1.6 3.2 0.00 0.00 0.00 41 995.0
20260502221925 22 272 3.2 3.2 0.00 0.00 0.00 41 994.9
20260502221721 22 341 1.6 3.2 0.00 0.00 0.00 41 994.9
20260502221525 22 322 1.6 3.2 0.00 0.00 0.00 41 995.0
20260502221130 22 283 1.6 3.2 0.00 0.00 0.00 41 995.0
20260502220917 22 324 1.6 3.2 0.00 0.00 0.00 41 995.0
20260502220701 22 315 1.6 3.2 0.00 0.00 0.00 41 994.9
20260502220527 22 308 3.2 3.2 0.00 0.00 0.00 41 995.0
20260502220257 22 320 0.0 3.2 0.00 0.00 0.00 41 995.0
20260502220116 22 306 1.6 4.8 0.00 0.00 0.00 41 995.0
20260502215922 22 333 1.6 4.8 0.00 0.00 0.00 41 994.9
20260502215657 22 289 1.6 4.8 0.00 0.00 0.00 41 994.9
20260502215438 22 300 1.6 4.8 0.00 0.00 0.00 41 994.9
20260502215034 22 315 4.8 4.8 0.00 0.00 0.00 41 995.0
20260502214845 22 322 3.2 4.8 0.00 0.00 0.00 41 995.0
20260502214643 22 315 1.6 3.2 0.00 0.00 0.00 41 994.9
20260502214429 22 294 1.6 3.2 0.00 0.00 0.00 41 994.9
20260502214225 22 289 1.6 4.8 0.00 0.00 0.00 41 995.0
20260502214112 22 320 1.6 4.8 0.00 0.00 0.00 41 995.0
20260502213819 22 325 3.2 6.4 0.00 0.00 0.00 41 995.0
20260502213625 22 312 1.6 6.4 0.00 0.00 0.00 41 995.0
20260502213407 22 315 3.2 6.4 0.00 0.00 0.00 41 995.0
20260502213016 22 341 3.2 4.8 0.00 0.00 0.00 41 995.0
20260502212612 22 328 1.6 8.0 0.00 0.00 0.00 41 995.0
20260502212407 22 315 3.2 8.0 0.00 0.00 0.00 40 995.0
20260502211740 22 315 1.6 4.8 0.00 0.00 0.00 40 994.9
20260502211538 22 329 1.6 4.8 0.00 0.00 0.00 40 994.9
20260502211403 22 315 1.6 4.8 0.00 0.00 0.00 40 994.9
20260502210935 22 330 1.6 4.8 0.00 0.00 0.00 39 994.9
20260502210749 22 325 3.2 3.2 0.00 0.00 0.00 39 994.8
20260502210345 22 328 1.6 6.4 0.00 0.00 0.00 39 994.8
20260502210122 22 315 1.6 6.4 0.00 0.00 0.00 39 994.8
20260502205928 22 310 6.4 6.4 0.00 0.00 0.00 39 994.9
20260502205719 22 318 3.2 6.4 0.00 0.00 0.00 39 994.7
20260502205552 22 280 4.8 6.4 0.00 0.00 0.00 39 994.7
20260502205329 22 333 3.2 6.4 0.00 0.00 0.00 39 994.7
20260502205108 22 309 1.6 6.4 0.00 0.00 0.00 39 994.7
20260502204923 22 319 3.2 6.4 0.00 0.00 0.00 38 994.6
20260502204706 22 309 1.6 6.4 0.00 0.00 0.00 38 994.7
20260502204457 22 315 3.2 6.4 0.00 0.00 0.00 38 994.6
20260502204103 23 326 3.2 6.4 0.00 0.00 0.00 37 994.6
20260502203843 23 319 1.6 6.4 0.00 0.00 0.00 37 994.6
20260502203242 23 317 3.2 6.4 0.00 0.00 0.00 36 994.4
20260502203047 23 309 4.8 6.4 0.00 0.00 0.00 36 994.4
20260502202839 23 324 4.8 4.8 0.00 0.00 0.00 36 994.3
20260502202641 23 315 3.2 4.8 0.00 0.00 0.00 36 994.3
20260502202444 23 277 3.2 3.2 0.00 0.00 0.00 36 994.4
20260502202237 23 233 3.2 6.4 0.00 0.00 0.00 36 994.4
20260502202020 23 247 0.0 6.4 0.00 0.00 0.00 36 994.4
20260502201609 23 260 1.6 4.8 0.00 0.00 0.00 35 994.2
20260502201418 23 266 1.6 4.8 0.00 0.00 0.00 35 994.2
20260502201159 23 326 1.6 4.8 0.00 0.00 0.00 35 994.2
20260502201050 23 315 1.6 1.6 0.00 0.00 0.00 35 994.2
20260502200802 23 326 1.6 1.6 0.00 0.00 0.00 35 994.2
20260502200614 23 338 1.6 1.6 0.00 0.00 0.00 35 994.1
20260502200437 23 270 0.0 1.6 0.00 0.00 0.00 35 994.1
20260502200151 23 270 0.0 3.2 0.00 0.00 0.00 34 994.2
20260502195955 23 315 0.0 3.2 0.00 0.00 0.00 35 994.1
20260502195823 23 326 1.6 3.2 0.00 0.00 0.00 34 994.1
20260502195540 24 330 1.6 1.6 0.00 0.00 0.00 33 994.1
20260502195346 24 326 1.6 1.6 0.00 0.00 0.00 33 994.0
20260502195211 24 318 1.6 1.6 0.00 0.00 0.00 33 994.0
20260502195011 25 283 1.6 3.2 0.00 0.00 0.00 33 994.0
20260502194747 25 0 0.0 3.2 0.00 0.00 0.00 33 993.9
20260502194553 25 244 1.6 3.2 0.00 0.00 0.00 33 993.9
20260502194322 25 285 1.6 3.2 0.00 0.00 0.00 33 994.0
20260502194125 25 269 1.6 3.2 0.00 0.00 0.00 33 993.8
20260502193954 25 117 0.0 3.2 0.00 0.00 0.00 33 993.9
20260502193729 25 315 0.0 4.8 0.00 0.00 0.00 33 993.8
20260502193318 25 315 0.0 4.8 0.00 0.00 0.00 33 993.8
20260502193112 25 256 4.8 4.8 0.00 0.00 0.00 33 993.9
20260502192520 25 274 1.6 4.8 0.00 0.00 0.00 32 993.8
20260502192257 25 306 1.6 6.4 0.00 0.00 0.00 32 993.7
20260502191448 25 294 1.6 4.8 0.00 0.00 0.00 32 993.8
20260502191313 25 285 3.2 4.8 0.00 0.00 0.00 32 993.7
20260502191043 25 266 1.6 4.8 0.00 0.00 0.00 32 993.8
20260502190651 25 225 1.6 6.4 0.00 0.00 0.00 32 993.7
20260502190254 25 236 4.8 6.4 0.00 0.00 0.00 32 993.7
20260502185842 25 234 3.2 6.4 0.00 0.00 0.00 32 993.7
20260502185611 25 279 1.6 6.4 0.00 0.00 0.00 32 993.6
20260502185211 26 315 0.0 4.8 0.00 0.00 0.00 32 993.6
20260502185008 26 315 0.0 4.8 0.00 0.00 0.00 32 993.7
20260502184845 26 297 1.6 4.8 0.00 0.00 0.00 32 993.6
20260502184559 26 355 0.0 6.4 0.00 0.00 0.00 32 993.6
20260502184356 26 254 0.0 6.4 0.00 0.00 0.00 33 993.6
20260502184202 25 311 1.6 3.2 0.00 0.00 0.00 33 993.6
20260502183736 25 315 1.6 3.2 0.00 0.00 0.00 33 993.6
20260502183548 25 305 0.0 3.2 0.00 0.00 0.00 32 993.6
20260502183421 26 328 1.6 3.2 0.00 0.00 0.00 32 993.6
20260502183143 26 318 0.0 3.2 0.00 0.00 0.00 32 993.5
20260502182924 26 351 1.6 3.2 0.00 0.00 0.00 32 993.6
20260502182534 26 319 1.6 8.0 0.00 0.00 0.00 32 993.5
20260502182339 26 314 1.6 8.0 0.00 0.00 0.00 32 993.5
20260502182144 26 329 4.8 8.0 0.00 0.00 0.00 32 993.5
20260502181933 26 315 1.6 3.2 0.00 0.00 0.00 31 993.6
20260502181712 26 305 1.6 4.8 0.00 0.00 0.00 31 993.6
20260502181550 26 332 1.6 4.8 0.00 0.00 0.00 31 993.6
20260502181313 26 345 3.2 4.8 0.00 0.00 0.00 30 993.6
20260502181110 26 318 3.2 4.8 0.00 0.00 0.00 30 993.5
20260502180930 27 334 3.2 6.4 0.00 0.00 0.00 29 993.5
20260502180708 27 323 3.2 6.4 0.00 0.00 0.00 29 993.5
20260502180338 27 337 3.2 4.8 0.00 0.00 0.00 27 993.4